Terminal Aerodrome Forecast
Issued by NWS

Home | Current Version | Previous Version | Text Only | Print | Product List | Glossary On
Versions: 1 2 3 4 5 6 7 8 9 10 11 12 13 14 15 16 17 18 19 20 21 22 23 24 25 26 27 28 29 30
000
FTUS46 KSEW 230300 AAA
TAFPAE
TAF AMD
KPAE 230305Z 2303/2324 15010KT P6SM -RA BKN040 OVC060
     FM230600 18013KT P6SM -SHRA SCT022 BKN040 BKN070
     FM232100 18013KT P6SM -SHRA SCT028 BKN050 BKN090 PROB30
      2321/2324 5SM TSRA OVC022CB=

USA.gov is the U.S. government's official web portal to all federal, state and local government web resources and services.